Terminal Aerodrome Forecast
Issued by NWS Brownsville, TX

Home | Current Version | Previous Version | Text Only | Print | Product List | Glossary On
Versions: 1 2 3 4 5 6 7 8 9 10 11 12 13 14 15 16 17 18 19 20 21 22 23 24 25 26 27
000
FTUS44 KBRO 011700
TAFMFE
TAF
KMFE 011727Z 0118/0218 12012KT P6SM SCT040
      TEMPO 0121/0201 5SM RA BR BKN025
     FM020600 VRB04KT P6SM SCT020=

USA.gov is the U.S. government's official web portal to all federal, state and local government web resources and services.